Monticello Municipal Ellis Field
KLLQ : now visible

Airfield :











YOU CAN JOIN US ON...

 
LOGIN :

Register | Disclaimer

   EN    FR    IT 

 









Legend :    VFR   Marginal VFR   IFR   Intensive IFR   Very Intensive IFR
Visi :
Ceiling :
>= 8 km
>= 3000ft
5 to 8 km
1000 to 3000 ft
1500m to 5 km
500 to 1000 ft
800 to 1500m
200 to 500 ft
< 800m
< 200 ft
Symbols :   Thunderstorms  Fog  Heavy snow  Heavy precipitations  Wind > 20 kt






- Airport Elevation : 270 ft


KLLQ - Monticello Municipal Ellis Field

CURRENT METAR :
  • 250753Z AUTO 00000KT 10SM CLR 22/21 A2987 RMK AO2 SLP112 T02220206

EXPIRED METARs :
  • 250653Z AUTO 00000KT 10SM FEW080 22/21 A2987 RMK AO2 SLP112 T02220206
  • 250553Z AUTO 00000KT 10SM CLR 24/21 A2987 RMK AO2 LTG DSNT NW SLP110 T02390206 10289 20228 403220206 56009

TAF KLLQ
Valid from the 25 at 06:00 until the 26 at 06:00 UTC


250520Z 2506/2606 16008KT P6SM VCTS SCT050CB
FM250800 14003KT P6SM VCSH OVC050
FM251400 16010KT P6SM VCTS SCT050CB BKN120
PROB30 2518/2524 5SM -TSRA BR BKN025 OVC050CB
KZME FIR / North America



MET'MAP, your aeronautical weather chart ! - Copyright ORBIFLY December 2007 - Disclaimer

ORBIFLY MET'MAP TEAM :

Programming & Development : Alexandra Zaïnal
Concept & original design : Baudouin d'Aumeries
Assistance for programming : Marc-Olivier Méhu
Technical & hardware support : Manuel Goepfert

Contact : metmap@orbifly.com




SOURCES & CREDITS :

   NOAA       Earth
Advisory